LFLP 200000Z AUTO 05005KT CAVOK 17/14 Q1024 LFLP 192330Z AUTO 04003KT CAVOK 18/15 Q1024 LFLP 192300Z AUTO 05005KT CAVOK 18/15 Q1024 LFLP 192230Z AUTO 05005KT CAVOK 18/15 Q1024 LFLP 192200Z AUTO 04005KT CAVOK 19/16 Q1024 LFLP 192130Z AUTO 05005KT CAVOK 19/16 Q1024 LFLP 192100Z AUTO VRB03KT CAVOK 21/16 Q1024 LFLP 192030Z AUTO 01004KT 320V030 CAVOK 21/16 Q1024 LFLP 192000Z AUTO VRB02KT CAVOK 22/17 Q1023 LFLP 191930Z AUTO 05005KT CAVOK 22/17 Q1023 LFLP 191900Z AUTO 03002KT CAVOK 24/17 Q1023 TEMPO FEW080TCU LFLP 191830Z AUTO 31003KT CAVOK 25/17 Q1023 TEMPO FEW080TCU LFLP 191800Z AUTO 19003KT CAVOK 26/16 Q1023 TEMPO VRB15KT 4000 TSRA FEW080TCU LFLP 191730Z AUTO 22003KT 160V270 CAVOK 27/16 Q1023 TEMPO VRB15KT 4000 TSRA FEW080TCU LFLP 191700Z AUTO 24004KT 200V280 CAVOK 27/16 Q1023 TEMPO VRB15KT 4000 TSRA BKN060CB LFLP 191630Z AUTO 26004KT 220V290 CAVOK 27/15 Q1023 TEMPO VRB15KT 4000 TSRA BKN060CB LFLP 191600Z AUTO VRB02KT CAVOK 27/14 Q1023 TEMPO VRB15KT 4000 TSRA BKN060CB LFLP 191530Z AUTO 13004KT 090V170 CAVOK 27/15 Q1023 TEMPO VRB15KT 4000 TSRA BKN060CB LFLP 191500Z AUTO 36004KT 320V040 9999 ///TCU 26/15 Q1023 TEMPO VRB15KT 4000 TSRA BKN060CB LFLP 191430Z AUTO 03003KT 330V080 9999 ///TCU 25/14 Q1024 TEMPO VRB15KT 4000 TSRA BKN060CB LFLP 191400Z AUTO 32004KT 280V010 9999 FEW030/// BKN110/// BKN130/// ///CB 24/19 Q1024 TEMPO VRB15KT 4000 TSRA LFLP 191330Z AUTO 07008KT 9999 -RA FEW038/// BKN092/// OVC110/// ///CB 22/18 Q1024 TEMPO 4000 TSRA LFLP 191300Z AUTO 36004KT 310V030 9999 -RA FEW036/// SCT062/// BKN076/// ///CB 23/18 Q1024 TEMPO VRB15KT 4000 TSRA LFLP 191230Z AUTO 23006KT 190V290 9999 -RA FEW023/// OVC100/// ///CB 24/17 Q1024 TEMPO 4000 TSRA LFLP 191200Z AUTO 25006KT 220V290 9999 VCTS ///CB 26/14 Q1023 BECMG NSW LFLP 191130Z AUTO 26007KT 190V310 9999 ///TCU 28/13 Q1023 NOSIG LFLP 191100Z AUTO VRB05KT CAVOK 27/14 Q1023 TEMPO FEW080TCU LFLP 191030Z AUTO 26004KT 180V320 CAVOK 27/14 Q1023 TEMPO FEW080TCU LFLP 191000Z AUTO 23006KT 200V260 CAVOK 26/14 Q1023 NOSIG LFLP 190930Z AUTO 25004KT 160V300 CAVOK 25/14 Q1024 NOSIG LFLP 190900Z AUTO 23005KT 190V260 CAVOK 24/14 Q1024 LFLP 190830Z AUTO 22006KT 190V250 CAVOK 24/14 Q1024 LFLP 190800Z AUTO 27004KT 230V310 CAVOK 24/14 Q1024 LFLP 190730Z AUTO VRB02KT CAVOK 24/14 Q1024 LFLP 190700Z AUTO VRB02KT CAVOK 22/14 Q1024 LFLP 190630Z AUTO 06003KT CAVOK 20/14 Q1024 LFLP 190600Z AUTO 06004KT CAVOK 20/14 Q1024 LFLP 190530Z AUTO 03003KT 350V060 CAVOK 18/14 Q1023 LFLP 190500Z AUTO 05004KT CAVOK 17/13 Q1023 LFLP 190430Z AUTO 05005KT CAVOK 16/13 Q1023 LFLP 190400Z AUTO 05005KT CAVOK 16/13 Q1023 LFLP 190330Z AUTO VRB03KT CAVOK 17/13 Q1022 LFLP 190300Z AUTO VRB03KT CAVOK 18/13 Q1022 LFLP 190230Z AUTO VRB02KT CAVOK 18/13 Q1022 LFLP 190200Z AUTO VRB02KT CAVOK 18/13 Q1022 LFLP 190130Z AUTO VRB02KT CAVOK 19/13 Q1021 LFLP 190100Z AUTO VRB03KT CAVOK 20/13 Q1021 LFLP 190030Z AUTO 15006KT 110V180 CAVOK 21/13 Q1021 LFLP 190000Z AUTO 14005KT 080V220 CAVOK 22/13 Q1021 LFLP 182330Z AUTO 01003KT 320V040 9999 ///TCU 20/14 Q1021 LFLP 182300Z AUTO 10003KT 050V130 9999 ///CB 20/14 Q1022 LFLP 182230Z AUTO 02005KT 9999 ///CB 20/14 Q1021 BECMG NSC LFLP 182200Z AUTO 04005KT CAVOK 20/14 Q1021 NOSIG LFLP 182130Z AUTO 02004KT CAVOK 21/13 Q1021 NOSIG LFLP 182100Z AUTO 03004KT CAVOK 21/14 Q1021 NOSIG LFLP 182030Z AUTO 04004KT CAVOK 21/14 Q1020 NOSIG LFLP 182000Z AUTO 02005KT CAVOK 22/13 Q1020 NOSIG LFLP 181930Z AUTO VRB03KT CAVOK 24/14 Q1020 NOSIG LFLP 181900Z AUTO 04003KT 9999 FEW082 25/14 Q1019 NOSIG LFLP 181830Z AUTO VRB03KT CAVOK 26/13 Q1019 NOSIG LFLP 181800Z AUTO 33003KT CAVOK 27/13 Q1019 NOSIG LFLP 181730Z AUTO 29003KT 250V320 CAVOK 29/12 Q1019 NOSIG LFLP 181700Z AUTO 31004KT 250V350 CAVOK 29/12 Q1019 LFLP 181630Z AUTO 31004KT 240V030 CAVOK 30/13 Q1019 LFLP 181600Z AUTO 33004KT 270V050 CAVOK 30/11 Q1019 LFLP 181530Z AUTO 31006KT 250V350 CAVOK 30/12 Q1019 LFLP 181500Z AUTO 31007KT 260V350 CAVOK 30/12 Q1019 LFLP 181430Z AUTO 31007KT 270V350 CAVOK 30/13 Q1019 LFLP 181400Z AUTO 32007KT 270V010 CAVOK 30/12 Q1019 LFLP 181330Z AUTO 31008KT 270V350 CAVOK 29/12 Q1019 LFLP 181300Z AUTO 30010KT 270V360 CAVOK 29/12 Q1020 LFLP 181230Z AUTO 31009KT 280V340 CAVOK 29/13 Q1020

METAR Messwerte "ANNECY/MEYTHET" LFLP

Zurück zur Übersicht

Ortsname
Ländercode / m ü. NN
Zeit Temperatur Taupunkt Rel.
Luftfeuchte
Luftdruck:
Altimeter
NN
Station
Wind in Beaufort
(Knoten)
Sichtweite
(Meter)
Wolken
(Meter über Grund)
Wettererscheinung
ANNECY/MEYTHET
FR 460
Fr 20.05. 02:00171482 %1024
1024
969
NO 2 (5)>= 10000Nicht signifikant 
ANNECY/MEYTHET
FR 460
Fr 20.05. 01:30181583 %1024
1024
969
NO 2 (3)>= 10000Nicht signifikant 
ANNECY/MEYTHET
FR 460
Fr 20.05. 01:00181583 %1024
1024
969
NO 2 (5)>= 10000Nicht signifikant 
ANNECY/MEYTHET
FR 460
Fr 20.05. 00:30181583 %1024
1024
969
NO 2 (5)>= 10000Nicht signifikant 
ANNECY/MEYTHET
FR 460
Fr 20.05. 00:00191683 %1024
1023
969
NO 2 (5)>= 10000Nicht signifikant 
ANNECY/MEYTHET
FR 460
Do 19.05. 23:30191683 %1024
1023
969
NO 2 (5)>= 10000Nicht signifikant 
ANNECY/MEYTHET
FR 460
Do 19.05. 23:00211673 %1024
1023
969
Uml 2 (3)>= 10000Nicht signifikant 
ANNECY/MEYTHET
FR 460
Do 19.05. 22:30211673 %1024
1023
969
N 2 (4)
NW - NNO
>= 10000Nicht signifikant 
ANNECY/MEYTHET
FR 460
Do 19.05. 22:00221773 %1023
1022
969
Uml 1 (2)>= 10000Nicht signifikant 
ANNECY/MEYTHET
FR 460
Do 19.05. 21:30221773 %1023
1022
969
NO 2 (5)>= 10000Nicht signifikant 
ANNECY/MEYTHET
FR 460
Do 19.05. 21:00241765 %1023
1021
969
NNO 1 (2)>= 10000Nicht signifikant 
ANNECY/MEYTHET
FR 460
Do 19.05. 20:30251761 %1023
1021
969
NW 2 (3)>= 10000Nicht signifikant 
ANNECY/MEYTHET
FR 460
Do 19.05. 20:00261654 %1023
1021
969
S 2 (3)
Bald zeitweise:
Uml 4 (15)
>= 10000
Bald zeitweise: 4000
Nicht signifikant Bald zeitweise: Gewitter mit Regen
ANNECY/MEYTHET
FR 460
Do 19.05. 19:30271651 %1023
1021
969
SW 2 (3)
SSO - W
Bald zeitweise:
Uml 4 (15)
>= 10000
Bald zeitweise: 4000
Nicht signifikant Bald zeitweise: Gewitter mit Regen
ANNECY/MEYTHET
FR 460
Do 19.05. 19:00271651 %1023
1021
969
WSW 2 (4)
SSW - W
Bald zeitweise:
Uml 4 (15)
>= 10000
Bald zeitweise: 4000
Nicht signifikant Bald zeitweise: Gewitter mit Regen
ANNECY/MEYTHET
FR 460
Do 19.05. 18:30271548 %1023
1021
969
W 2 (4)
SW - WNW
Bald zeitweise:
Uml 4 (15)
>= 10000
Bald zeitweise: 4000
Nicht signifikant Bald zeitweise: Gewitter mit Regen
ANNECY/MEYTHET
FR 460
Do 19.05. 18:00271445 %1023
1021
969
Uml 1 (2)
Bald zeitweise:
Uml 4 (15)
>= 10000
Bald zeitweise: 4000
Nicht signifikant Bald zeitweise: Gewitter mit Regen
ANNECY/MEYTHET
FR 460
Do 19.05. 17:30271548 %1023
1021
969
SO 2 (4)
O - S
Bald zeitweise:
Uml 4 (15)
>= 10000
Bald zeitweise: 4000
Nicht signifikant Bald zeitweise: Gewitter mit Regen
ANNECY/MEYTHET
FR 460
Do 19.05. 17:00261551 %1023
1021
969
N 2 (4)
NW - NO
Bald zeitweise:
Uml 4 (15)
>= 10000
Bald zeitweise: 4000
  Bald zeitweise: Gewitter mit Regen
ANNECY/MEYTHET
FR 460
Do 19.05. 16:30251450 %1024
1022
969
NNO 2 (3)
NNW - O
Bald zeitweise:
Uml 4 (15)
>= 10000
Bald zeitweise: 4000
  Bald zeitweise: Gewitter mit Regen
ANNECY/MEYTHET
FR 460
Do 19.05. 16:00241974 %1024
1022
969
NW 2 (4)
W - N
Bald zeitweise:
Uml 4 (15)
>= 10000
Bald zeitweise: 4000
Stark bewölkt (4000)
Stark bewölkt (3400)
Leicht bewölkt (910)
 Bald zeitweise: Gewitter mit Regen
ANNECY/MEYTHET
FR 460
Do 19.05. 15:30221878 %1024
1023
969
ONO 3 (8)>= 10000
Bald zeitweise: 4000
Bedeckt (3400)
Stark bewölkt (2800)
Leicht bewölkt (1200)
Regen (schwach)
Bald zeitweise: Gewitter mit Regen
ANNECY/MEYTHET
FR 460
Do 19.05. 15:00231873 %1024
1023
969
N 2 (4)
NW - NNO
Bald zeitweise:
Uml 4 (15)
>= 10000
Bald zeitweise: 4000
Stark bewölkt (2300)
Wolkig (1900)
Leicht bewölkt (1100)
Regen (schwach)
Bald zeitweise: Gewitter mit Regen
ANNECY/MEYTHET
FR 460
Do 19.05. 14:30241765 %1024
1022
969
SW 2 (6)
S - WNW
>= 10000
Bald zeitweise: 4000
Bedeckt (3000)
Leicht bewölkt (700)
Regen (schwach)
Bald zeitweise: Gewitter mit Regen
ANNECY/MEYTHET
FR 460
Do 19.05. 14:00261448 %1023
1021
969
WSW 2 (6)
SW - WNW
>= 10000  
ANNECY/MEYTHET
FR 460
Do 19.05. 13:30281340 %1023
1021
969
W 3 (7)
S - NW
>= 10000  
ANNECY/MEYTHET
FR 460
Do 19.05. 13:00271445 %1023
1021
969
Uml 2 (5)>= 10000Nicht signifikant 
ANNECY/MEYTHET
FR 460
Do 19.05. 12:30271445 %1023
1021
969
W 2 (4)
S - NW
>= 10000Nicht signifikant 
ANNECY/MEYTHET
FR 460
Do 19.05. 12:00261448 %1023
1021
969
SW 2 (6)
SSW - W
>= 10000Nicht signifikant 
ANNECY/MEYTHET
FR 460
Do 19.05. 11:30251450 %1024
1022
969
WSW 2 (4)
SSO - WNW
>= 10000Nicht signifikant 
ANNECY/MEYTHET
FR 460
Do 19.05. 11:00241454 %1024
1022
969
SW 2 (5)
S - W
>= 10000Nicht signifikant 
ANNECY/MEYTHET
FR 460
Do 19.05. 10:30241454 %1024
1022
969
SW 2 (6)
S - WSW
>= 10000Nicht signifikant 
ANNECY/MEYTHET
FR 460
Do 19.05. 10:00241454 %1024
1022
969
W 2 (4)
SW - NW
>= 10000Nicht signifikant 
ANNECY/MEYTHET
FR 460
Do 19.05. 09:30241454 %1024
1022
969
Uml 1 (2)>= 10000Nicht signifikant 
ANNECY/MEYTHET
FR 460
Do 19.05. 09:00221460 %1024
1023
969
Uml 1 (2)>= 10000Nicht signifikant 
ANNECY/MEYTHET
FR 460
Do 19.05. 08:30201468 %1024
1023
969
ONO 2 (3)>= 10000Nicht signifikant 
ANNECY/MEYTHET
FR 460
Do 19.05. 08:00201468 %1024
1023
969
ONO 2 (4)>= 10000Nicht signifikant 
ANNECY/MEYTHET
FR 460
Do 19.05. 07:30181477 %1023
1023
969
NNO 2 (3)
N - ONO
>= 10000Nicht signifikant 
ANNECY/MEYTHET
FR 460
Do 19.05. 07:00171377 %1023
1023
969
NO 2 (4)>= 10000Nicht signifikant 
ANNECY/MEYTHET
FR 460
Do 19.05. 06:30161382 %1023
1023
969
NO 2 (5)>= 10000Nicht signifikant 
ANNECY/MEYTHET
FR 460
Do 19.05. 06:00161382 %1023
1023
969
NO 2 (5)>= 10000Nicht signifikant 
ANNECY/MEYTHET
FR 460
Do 19.05. 05:30171377 %1022
1022
968
Uml 2 (3)>= 10000Nicht signifikant 
ANNECY/MEYTHET
FR 460
Do 19.05. 05:00181373 %1022
1022
968
Uml 2 (3)>= 10000Nicht signifikant 
ANNECY/MEYTHET
FR 460
Do 19.05. 04:30181373 %1022
1022
968
Uml 1 (2)>= 10000Nicht signifikant 
ANNECY/MEYTHET
FR 460
Do 19.05. 04:00181373 %1022
1022
968
Uml 1 (2)>= 10000Nicht signifikant 
ANNECY/MEYTHET
FR 460
Do 19.05. 03:30191368 %1021
1020
967
Uml 1 (2)>= 10000Nicht signifikant 
ANNECY/MEYTHET
FR 460
Do 19.05. 03:00201364 %1021
1020
967
Uml 2 (3)>= 10000Nicht signifikant 
ANNECY/MEYTHET
FR 460
Do 19.05. 02:30211360 %1021
1020
967
SSO 2 (6)
OSO - S
>= 10000Nicht signifikant 
ANNECY/MEYTHET
FR 460
Do 19.05. 02:00221357 %1021
1020
967
SO 2 (5)
O - SW
>= 10000Nicht signifikant 
ANNECY/MEYTHET
FR 460
Do 19.05. 01:30201468 %1021
1020
967
N 2 (3)
NW - NO
>= 10000  
ANNECY/MEYTHET
FR 460
Do 19.05. 01:00201468 %1022
1021
968
O 2 (3)
NO - SO
>= 10000  
ANNECY/MEYTHET
FR 460
Do 19.05. 00:30201468 %1021
1020
967
NNO 2 (5)>= 10000  
ANNECY/MEYTHET
FR 460
Do 19.05. 00:00201468 %1021
1020
967
NO 2 (5)>= 10000Nicht signifikant 
ANNECY/MEYTHET
FR 460
Mi 18.05. 23:30211360 %1021
1020
967
NNO 2 (4)>= 10000Nicht signifikant 
ANNECY/MEYTHET
FR 460
Mi 18.05. 23:00211464 %1021
1020
967
NNO 2 (4)>= 10000Nicht signifikant 
ANNECY/MEYTHET
FR 460
Mi 18.05. 22:30211464 %1020
1019
966
NO 2 (4)>= 10000Nicht signifikant 
ANNECY/MEYTHET
FR 460
Mi 18.05. 22:00221357 %1020
1019
966
NNO 2 (5)>= 10000Nicht signifikant 
ANNECY/MEYTHET
FR 460
Mi 18.05. 21:30241454 %1020
1018
966
Uml 2 (3)>= 10000Nicht signifikant 
ANNECY/MEYTHET
FR 460
Mi 18.05. 21:00251450 %1019
1017
965
NO 2 (3)>= 10000Leicht bewölkt (2500) 
ANNECY/MEYTHET
FR 460
Mi 18.05. 20:30261345 %1019
1017
965
Uml 2 (3)>= 10000Nicht signifikant 
ANNECY/MEYTHET
FR 460
Mi 18.05. 20:00271342 %1019
1017
965
NNW 2 (3)>= 10000Nicht signifikant 
ANNECY/MEYTHET
FR 460
Mi 18.05. 19:30291235 %1019
1016
965
WNW 2 (3)
WSW - NW
>= 10000Nicht signifikant 
ANNECY/MEYTHET
FR 460
Mi 18.05. 19:00291235 %1019
1016
965
NW 2 (4)
WSW - N
>= 10000Nicht signifikant 
ANNECY/MEYTHET
FR 460
Mi 18.05. 18:30301335 %1019
1016
965
NW 2 (4)
WSW - NNO
>= 10000Nicht signifikant 
ANNECY/MEYTHET
FR 460
Mi 18.05. 18:00301131 %1019
1016
965
NNW 2 (4)
W - NO
>= 10000Nicht signifikant 
ANNECY/MEYTHET
FR 460
Mi 18.05. 17:30301233 %1019
1016
965
NW 2 (6)
WSW - N
>= 10000Nicht signifikant 
ANNECY/MEYTHET
FR 460
Mi 18.05. 17:00301233 %1019
1016
965
NW 3 (7)
W - N
>= 10000Nicht signifikant 
ANNECY/MEYTHET
FR 460
Mi 18.05. 16:30301335 %1019
1016
965
NW 3 (7)
W - N
>= 10000Nicht signifikant 
ANNECY/MEYTHET
FR 460
Mi 18.05. 16:00301233 %1019
1016
965
NW 3 (7)
W - N
>= 10000Nicht signifikant 
ANNECY/MEYTHET
FR 460
Mi 18.05. 15:30291235 %1019
1016
965
NW 3 (8)
W - N
>= 10000Nicht signifikant 
ANNECY/MEYTHET
FR 460
Mi 18.05. 15:00291235 %1020
1017
966
WNW 3 (10)
W - N
>= 10000Nicht signifikant 
ANNECY/MEYTHET
FR 460
Mi 18.05. 14:30291337 %1020
1017
966
NW 3 (9)
W - NNW
>= 10000Nicht signifikant 

Altimeter: Einstellung am Altimeter (Höhenmesser), die Höhe 0 muss auf diesen Luftdruckwert zeigen, damit das Gerät die Stationshöhe richtig anzeigt.

NN: Luftdruck reduziert auf "Normal Null", auf Meereshöhe, dieser von der Temperatur abhängige Wert wird bisweilen unkorrekt einfach als "Luftdruck" bezeichnet. Eigentlich nur eine fiktive Größe, die es erlaubt, Stationen auf unterschiedlichen Höhen miteinander zu vergleichen.

Station: Realer Luftdruck an der Station.